Time;durP1;ratioP1;P1;durP2;ratioP2;P2;SDS_P1;SDS_P2;PMS_P1;PMS_P2;Temp;Humidity;BMP_temperature;BMP_pressure;BME280_temperature;BME280_humidity;BME280_pressure;Samples;Min_cycle;Max_cycle;Signal;HPM_P1;HPM_P2
2022/06/13 00:02:11;;;;;;;9.40;2.70;;;;;;;16.29;100.00;100912.91;6249218;28;20057;-88
2022/06/13 00:05:14;;;;;;;8.48;3.17;;;;;;;16.17;100.00;100911.47;6217765;28;20061;-88
2022/06/13 00:08:17;;;;;;;9.05;3.10;;;;;;;16.09;100.00;100909.63;6217184;28;20046;-88
2022/06/13 00:11:22;;;;;;;7.50;3.03;;;;;;;15.96;100.00;100907.38;6218438;28;20042;-88
2022/06/13 00:14:24;;;;;;;8.77;2.92;;;;;;;15.83;100.00;100909.50;6235047;28;20042;-88
2022/06/13 00:17:27;;;;;;;8.13;3.33;;;;;;;15.71;100.00;100916.72;6236788;28;20038;-88
2022/06/13 00:20:30;;;;;;;10.52;2.90;;;;;;;15.64;100.00;100921.66;6228049;28;20041;-88
2022/06/13 00:23:36;;;;;;;10.23;3.42;;;;;;;15.61;100.00;100921.13;6235558;28;20044;-88
2022/06/13 00:26:38;;;;;;;6.88;2.97;;;;;;;15.62;100.00;100920.97;6220624;28;20119;-88
2022/06/13 00:29:41;;;;;;;8.50;3.38;;;;;;;15.57;100.00;100919.75;6230329;28;20515;-88
2022/06/13 00:32:43;;;;;;;8.88;2.80;;;;;;;15.50;100.00;100922.09;6251368;28;20388;-88
2022/06/13 00:35:45;;;;;;;7.43;3.10;;;;;;;15.41;100.00;100920.38;6227899;28;20057;-88
2022/06/13 00:38:48;;;;;;;8.00;3.10;;;;;;;15.34;100.00;100919.31;6226555;28;20053;-88
2022/06/13 00:41:50;;;;;;;12.63;3.70;;;;;;;15.23;100.00;100917.69;6226789;28;20049;-88
2022/06/13 00:45:10;;;;;;;11.40;3.60;;;;;;;15.18;100.00;100918.13;6230019;28;20033;-88
2022/06/13 00:48:16;;;;;;;11.95;3.25;;;;;;;15.24;100.00;100925.38;6256733;28;20559;-88
2022/06/13 00:51:18;;;;;;;7.80;3.20;;;;;;;15.27;100.00;100916.44;6219987;28;20484;-88
2022/06/13 00:54:21;;;;;;;8.00;3.20;;;;;;;15.28;100.00;100913.69;6252311;28;20123;-88
2022/06/13 00:57:27;;;;;;;8.23;3.30;;;;;;;15.26;100.00;100914.81;6227967;28;20586;-88
2022/06/13 01:00:32;;;;;;;8.60;3.20;;;;;;;15.20;100.00;100923.19;6248765;28;20427;-88
2022/06/13 01:03:34;;;;;;;7.22;3.40;;;;;;;15.12;100.00;100905.63;6261873;28;20049;-88
2022/06/13 01:06:42;;;;;;;9.13;3.35;;;;;;;15.00;100.00;100911.97;6250081;28;20056;-88
2022/06/13 01:13:08;;;;;;;9.90;3.42;;;;;;;14.91;100.00;100907.63;6238190;28;20079;-88
2022/06/13 01:16:23;;;;;;;9.70;3.60;;;;;;;14.85;100.00;100917.63;6263089;28;20123;-88
2022/06/13 01:20:06;;;;;;;7.22;3.30;;;;;;;14.85;100.00;100915.00;6242033;28;20041;-88
2022/06/13 01:23:25;;;;;;;9.65;3.70;;;;;;;14.78;100.00;100911.34;6231245;28;20542;-88
2022/06/13 01:27:05;;;;;;;10.20;3.50;;;;;;;14.76;100.00;100915.88;6256951;28;20127;-88
2022/06/13 01:30:45;;;;;;;10.73;4.07;;;;;;;14.72;100.00;100906.66;6238869;28;20307;-87
2022/06/13 01:34:06;;;;;;;8.23;3.70;;;;;;;14.70;100.00;100898.16;6240776;28;20072;-88
2022/06/13 01:37:34;;;;;;;5.53;3.03;;;;;;;14.67;100.00;100897.63;6231513;28;20052;-88
2022/06/13 01:41:04;;;;;;;4.88;2.80;;;;;;;14.59;100.00;100904.34;6229715;28;20054;-88
2022/06/13 01:44:06;;;;;;;8.40;3.07;;;;;;;14.53;100.00;100894.47;6224236;28;20044;-88
2022/06/13 01:47:56;;;;;;;8.40;3.40;;;;;;;14.47;100.00;100894.19;6252789;28;20729;-88
2022/06/13 01:51:14;;;;;;;7.32;2.97;;;;;;;14.30;100.00;100888.69;6150993;28;20058;-88
2022/06/13 01:54:34;;;;;;;8.98;3.20;;;;;;;14.14;100.00;100871.00;6170923;28;20065;-88
2022/06/13 01:57:44;;;;;;;7.72;3.78;;;;;;;14.03;100.00;100875.50;6175009;28;20055;-87
2022/06/13 02:01:03;;;;;;;11.45;3.28;;;;;;;13.96;100.00;100880.41;6165467;28;20050;-88
2022/06/13 02:04:12;;;;;;;9.88;4.20;;;;;;;13.85;100.00;100883.97;6161116;28;20055;-88
2022/06/13 02:07:28;;;;;;;9.02;4.22;;;;;;;13.82;100.00;100884.25;6163120;28;20500;-88
2022/06/13 02:10:35;;;;;;;11.05;3.85;;;;;;;13.79;100.00;100887.13;6166561;28;20057;-88
2022/06/13 02:13:43;;;;;;;12.05;4.13;;;;;;;13.74;100.00;100884.09;6185407;28;20176;-88
2022/06/13 02:16:55;;;;;;;9.20;3.38;;;;;;;13.75;100.00;100891.75;6175177;28;20057;-88
2022/06/13 02:20:01;;;;;;;9.82;3.40;;;;;;;13.67;100.00;100903.78;6161269;28;20054;-87
2022/06/13 02:23:11;;;;;;;9.93;3.65;;;;;;;13.61;100.00;100899.09;6161015;28;20080;-88
2022/06/13 02:26:24;;;;;;;8.98;3.88;;;;;;;13.65;100.00;100910.88;6236652;28;20148;-88
2022/06/13 02:29:36;;;;;;;10.20;3.58;;;;;;;13.56;100.00;100900.31;6239311;28;20041;-88
2022/06/13 02:32:56;;;;;;;10.63;3.60;;;;;;;13.52;100.00;100904.13;6235863;28;20498;-88
2022/06/13 02:36:04;;;;;;;7.53;3.88;;;;;;;13.50;100.00;100911.25;6223393;28;20046;-88
2022/06/13 02:39:12;;;;;;;6.68;4.07;;;;;;;13.50;100.00;100907.81;6223329;28;20586;-88
2022/06/13 02:42:37;;;;;;;8.40;3.65;;;;;;;13.53;100.00;100902.34;6247779;28;20057;-88
2022/06/13 02:46:10;;;;;;;9.93;4.20;;;;;;;13.61;100.00;100899.09;6241940;28;20049;-88
2022/06/13 02:49:18;;;;;;;10.75;3.85;;;;;;;13.58;100.00;100890.59;6241746;28;20341;-88
2022/06/13 02:52:57;;;;;;;8.27;3.20;;;;;;;13.57;100.00;100888.13;6229249;28;20095;-88
2022/06/13 02:56:10;;;;;;;10.55;4.22;;;;;;;13.54;100.00;100884.03;6215905;28;20064;-88
2022/06/13 02:59:24;;;;;;;6.80;3.42;;;;;;;13.50;100.00;100887.00;6247364;28;20046;-88
2022/06/13 03:03:05;;;;;;;8.27;3.75;;;;;;;13.55;100.00;100883.06;6235202;28;20046;-88
2022/06/13 03:06:31;;;;;;;9.07;3.42;;;;;;;13.50;100.00;100869.63;6219341;28;20069;-88
2022/06/13 03:09:39;;;;;;;9.43;3.47;;;;;;;13.55;100.00;100874.44;6216626;28;20041;-88
2022/06/13 03:13:12;;;;;;;11.05;4.32;;;;;;;13.51;100.00;100880.84;6226869;28;20080;-88
2022/06/13 03:16:32;;;;;;;8.70;3.78;;;;;;;13.47;100.00;100895.91;6216607;28;20670;-88
2022/06/13 03:19:46;;;;;;;8.57;3.67;;;;;;;13.44;100.00;100893.56;6245144;28;20604;-88
2022/06/13 03:22:57;;;;;;;8.38;3.50;;;;;;;13.48;100.00;100901.91;6265881;28;20048;-88
2022/06/13 03:26:13;;;;;;;9.07;3.83;;;;;;;13.50;100.00;100903.44;6218039;28;20053;-88
2022/06/13 03:29:29;;;;;;;6.72;3.22;;;;;;;13.55;100.00;100909.06;6230449;28;20049;-88
2022/06/13 03:32:37;;;;;;;9.45;3.67;;;;;;;13.54;100.00;100920.44;6250014;28;20067;-88
2022/06/13 03:35:42;;;;;;;6.75;3.78;;;;;;;13.52;100.00;100919.75;6258546;28;20522;-88
2022/06/13 03:38:59;;;;;;;10.77;3.58;;;;;;;13.56;100.00;100913.34;6247990;28;20454;-88
2022/06/13 03:42:15;;;;;;;6.65;3.50;;;;;;;13.66;100.00;100917.72;6257608;28;20497;-88
2022/06/13 03:45:24;;;;;;;9.45;3.35;;;;;;;13.76;100.00;100918.56;6262445;28;20173;-88
2022/06/13 03:48:35;;;;;;;8.27;3.53;;;;;;;13.84;100.00;100920.50;6263910;28;20418;-88
2022/06/13 03:51:42;;;;;;;14.15;3.65;;;;;;;13.98;100.00;100930.56;6260954;28;20048;-88
2022/06/13 03:54:50;;;;;;;11.10;3.65;;;;;;;14.08;100.00;100930.59;6263964;28;20410;-88
2022/06/13 03:57:59;;;;;;;7.85;4.13;;;;;;;14.19;100.00;100931.31;6244229;28;20042;-88
2022/06/13 04:01:19;;;;;;;9.25;3.38;;;;;;;14.34;100.00;100934.34;6253167;28;20525;-88
2022/06/13 04:04:26;;;;;;;8.15;3.72;;;;;;;14.52;100.00;100928.44;6261904;28;20513;-88
2022/06/13 04:07:32;;;;;;;11.15;3.58;;;;;;;14.62;100.00;100930.13;6259827;28;20594;-88
2022/06/13 04:10:49;;;;;;;8.27;3.70;;;;;;;14.70;100.00;100918.19;6256412;28;20179;-88
2022/06/13 04:14:04;;;;;;;10.05;3.75;;;;;;;14.58;100.00;100899.25;6237978;28;20092;-88
2022/06/13 04:17:28;;;;;;;7.78;3.80;;;;;;;14.55;100.00;100896.94;6257918;28;20041;-88
2022/06/13 04:21:07;;;;;;;11.82;3.95;;;;;;;14.51;100.00;100892.94;6243324;28;20049;-88
2022/06/13 04:24:23;;;;;;;7.57;3.22;;;;;;;14.52;100.00;100895.41;6223930;28;20069;-88
2022/06/13 04:27:51;;;;;;;8.02;3.00;;;;;;;14.53;100.00;100894.47;6216101;28;20053;-89
2022/06/13 04:30:55;;;;;;;6.88;3.67;;;;;;;14.56;100.00;100886.41;6259060;28;20048;-88
2022/06/13 04:34:14;;;;;;;7.15;4.32;;;;;;;14.58;100.00;100886.25;6263358;28;20041;-89
2022/06/13 04:37:20;;;;;;;8.85;3.47;;;;;;;14.61;100.00;100883.38;6239887;28;20041;-88
2022/06/13 04:40:26;;;;;;;10.25;3.55;;;;;;;14.61;100.00;100884.19;6232026;28;20052;-88
2022/06/13 04:43:44;;;;;;;8.48;3.50;;;;;;;14.65;100.00;100893.34;6242272;28;20164;-89
2022/06/13 04:46:49;;;;;;;13.35;3.92;;;;;;;14.67;100.00;100897.63;6240737;28;20044;-88
2022/06/13 04:49:55;;;;;;;7.60;3.60;;;;;;;14.68;100.00;100900.06;6258748;28;20042;-88
2022/06/13 04:52:59;;;;;;;10.32;3.75;;;;;;;14.71;100.00;100901.59;6253992;28;20052;-89
2022/06/13 04:56:01;;;;;;;12.30;3.42;;;;;;;14.70;100.00;100913.78;6261789;28;20518;-89
2022/06/13 04:59:03;;;;;;;7.05;3.00;;;;;;;14.74;100.00;100911.75;6226517;28;20049;-88
2022/06/13 05:02:06;;;;;;;11.05;3.50;;;;;;;14.77;100.00;100912.28;6236369;28;20169;-88
2022/06/13 05:05:30;;;;;;;9.18;3.47;;;;;;;14.87;100.00;100914.88;6224993;28;20038;-88
2022/06/13 05:08:36;;;;;;;6.63;3.50;;;;;;;15.01;100.00;100914.44;6217045;28;20052;-88
2022/06/13 05:11:47;;;;;;;8.82;3.25;;;;;;;15.12;100.00;100910.84;6223441;28;20041;-88
2022/06/13 05:14:57;;;;;;;;;;;;;;;15.23;100.00;100907.28;6225592;28;20057;-88
2022/06/13 05:18:36;;;;;;;9.13;3.30;;;;;;;15.49;100.00;100910.03;6242460;28;19924;-88
2022/06/13 05:22:00;;;;;;;7.47;3.33;;;;;;;15.66;100.00;100911.88;6228025;28;20079;-88
2022/06/13 05:25:14;;;;;;;7.95;3.13;;;;;;;15.82;100.00;100906.06;6227904;28;20038;-88
2022/06/13 05:28:20;;;;;;;9.02;3.90;;;;;;;15.95;100.00;100913.56;6226689;28;20107;-88
2022/06/13 05:31:22;;;;;;;9.07;2.65;;;;;;;16.06;100.00;100907.31;6228650;28;20522;-88
2022/06/13 05:34:33;;;;;;;7.82;3.25;;;;;;;16.24;100.00;100915.16;6233426;28;20100;-90
2022/06/13 05:37:35;;;;;;;8.98;3.72;;;;;;;16.39;100.00;100908.44;6235586;28;20045;-90
2022/06/13 05:40:37;;;;;;;8.98;3.10;;;;;;;16.57;98.65;100921.47;6231805;28;20123;-90
2022/06/13 05:43:39;;;;;;;9.27;3.55;;;;;;;16.70;95.59;100927.16;6239434;28;20049;-90
2022/06/13 05:46:41;;;;;;;9.20;3.08;;;;;;;16.73;95.01;100921.63;6262474;28;20043;-90
2022/06/13 05:49:45;;;;;;;7.20;2.85;;;;;;;16.74;95.88;100925.91;6252900;28;20045;-89
2022/06/13 05:52:47;;;;;;;7.90;3.30;;;;;;;16.76;95.72;100937.00;6233928;28;20052;-90
2022/06/13 05:55:49;;;;;;;11.52;3.25;;;;;;;16.81;97.84;100922.69;6226276;28;20049;-89
2022/06/13 05:58:52;;;;;;;8.05;3.00;;;;;;;16.89;97.45;100920.94;6225590;28;20044;-89
2022/06/13 06:01:54;;;;;;;7.45;3.45;;;;;;;16.99;96.45;100928.69;6224520;28;20042;-90
2022/06/13 06:04:56;;;;;;;6.85;3.58;;;;;;;17.07;92.63;100930.53;6219728;28;20037;-89
2022/06/13 06:08:06;;;;;;;10.65;3.50;;;;;;;17.11;90.77;100927.47;6230791;28;20049;-89
2022/06/13 06:11:09;;;;;;;11.15;3.35;;;;;;;17.26;87.76;100927.72;6222560;28;20034;-89
2022/06/13 06:14:11;;;;;;;10.60;3.70;;;;;;;17.37;85.76;100929.28;6224057;28;20076;-90
2022/06/13 06:17:13;;;;;;;8.68;3.45;;;;;;;17.41;85.41;100936.63;6221928;28;20069;-89
2022/06/13 06:20:18;;;;;;;7.57;3.13;;;;;;;17.48;86.66;100944.69;6250946;28;20407;-90
2022/06/13 06:23:20;;;;;;;11.07;3.30;;;;;;;17.54;83.90;100940.63;6238922;28;20049;-90
2022/06/13 06:26:24;;;;;;;6.82;3.35;;;;;;;17.48;84.93;100947.31;6226450;28;20559;-90
2022/06/13 06:29:26;;;;;;;7.13;2.88;;;;;;;17.52;83.30;100943.41;6229091;28;20042;-90
2022/06/13 06:32:27;;;;;;;9.00;3.70;;;;;;;17.53;83.40;100939.00;6247311;28;20302;-89
2022/06/13 06:35:32;;;;;;;9.90;3.25;;;;;;;17.63;84.70;100944.94;6234615;28;20651;-89
2022/06/13 06:38:40;;;;;;;10.80;3.40;;;;;;;17.77;81.59;100943.53;6233757;28;20034;-90
2022/06/13 06:41:43;;;;;;;8.73;3.05;;;;;;;17.67;83.13;100943.66;6240290;28;20041;-90
2022/06/13 06:44:45;;;;;;;8.65;2.70;;;;;;;17.60;82.96;100940.00;6263110;28;20041;-90
2022/06/13 06:47:46;;;;;;;7.90;3.00;;;;;;;17.40;84.70;100955.13;6261886;28;20127;-91
2022/06/13 06:50:50;;;;;;;7.70;2.90;;;;;;;17.21;85.47;100949.13;6263091;28;20115;-90
2022/06/13 07:00:37;;;;;;;5.53;2.30;;;;;;;17.64;83.86;100947.41;6240807;28;20614;-90
2022/06/13 07:03:40;;;;;;;7.70;2.90;;;;;;;17.69;80.90;100954.78;6225497;28;20049;-90
2022/06/13 07:06:42;;;;;;;8.43;3.17;;;;;;;17.38;81.25;100954.47;6238963;28;20142;-90
2022/06/13 07:09:44;;;;;;;9.32;2.97;;;;;;;17.03;83.00;100956.19;6250571;28;20131;-89
2022/06/13 07:12:47;;;;;;;8.32;2.65;;;;;;;16.67;84.15;100948.38;6240554;28;20064;-90
2022/06/13 07:15:49;;;;;;;5.13;2.80;;;;;;;16.56;86.09;100959.06;6251816;28;20037;-91
2022/06/13 07:18:51;;;;;;;11.75;3.30;;;;;;;16.41;86.32;100948.31;6247762;28;20175;-91
2022/06/13 07:21:54;;;;;;;6.90;2.75;;;;;;;16.41;84.75;100955.31;6263088;28;20052;-91
2022/06/13 07:24:56;;;;;;;10.40;3.08;;;;;;;16.27;85.41;100951.41;6244273;28;20124;-91
2022/06/13 07:27:58;;;;;;;10.27;3.28;;;;;;;16.42;85.56;100954.34;6242821;28;20049;-91
2022/06/13 07:31:00;;;;;;;7.78;2.78;;;;;;;16.49;86.56;100950.97;6231882;28;20052;-91
2022/06/13 07:34:03;;;;;;;8.75;3.00;;;;;;;16.47;86.17;100955.56;6233072;28;20038;-90
2022/06/13 07:37:08;;;;;;;9.07;3.08;;;;;;;16.58;88.49;100952.72;6231388;28;20401;-92
2022/06/13 07:40:11;;;;;;;9.43;3.20;;;;;;;16.70;85.04;100955.91;6250211;28;20574;-92
2022/06/13 07:43:28;;;;;;;8.05;3.10;;;;;;;16.82;84.03;100945.25;6248808;28;20040;-91
2022/06/13 07:46:30;;;;;;;9.00;3.40;;;;;;;16.87;82.83;100945.59;6249063;28;20041;-92
2022/06/13 07:49:32;;;;;;;7.05;3.13;;;;;;;17.07;84.45;100946.25;6240859;28;20049;-91
2022/06/13 07:52:34;;;;;;;7.15;2.95;;;;;;;17.30;79.22;100954.41;6238449;28;20060;-91
2022/06/13 07:55:40;;;;;;;8.38;2.63;;;;;;;17.48;76.76;100956.97;6240615;28;20052;-90
2022/06/13 07:58:44;;;;;;;7.55;2.53;;;;;;;17.58;73.00;100949.81;6240288;28;20041;-91
2022/06/13 08:01:47;;;;;;;7.18;2.83;;;;;;;17.59;71.70;100960.16;6244395;28;20503;-90
2022/06/13 08:04:49;;;;;;;7.88;2.60;;;;;;;17.44;68.46;100961.72;6228902;28;20095;-90
2022/06/13 08:08:00;;;;;;;8.95;2.40;;;;;;;17.35;70.32;100960.81;6249792;28;20076;-91
2022/06/13 08:11:06;;;;;;;8.23;3.03;;;;;;;17.24;69.68;100963.69;6249550;28;20540;-91
2022/06/13 08:14:09;;;;;;;9.25;2.50;;;;;;;17.16;68.49;100968.88;6258602;28;20037;-93
2022/06/13 08:17:12;;;;;;;10.88;2.28;;;;;;;16.99;67.43;100970.53;6242286;28;20041;-91
2022/06/13 08:20:14;;;;;;;6.63;2.33;;;;;;;17.06;69.06;100962.91;6260067;28;20123;-91
2022/06/13 08:23:18;;;;;;;5.05;2.00;;;;;;;17.13;67.76;100963.97;6249449;28;20038;-91
2022/06/13 08:26:20;;;;;;;6.82;2.22;;;;;;;17.37;68.96;100968.53;6242149;28;20179;-91
2022/06/13 08:29:22;;;;;;;12.95;3.78;;;;;;;17.45;64.69;100968.56;6225729;28;20042;-91
2022/06/13 08:32:24;;;;;;;7.13;1.92;;;;;;;17.54;65.51;100967.66;6229524;28;20046;-91
2022/06/13 08:35:26;;;;;;;8.93;2.33;;;;;;;17.65;62.74;100977.03;6245413;28;20053;-92
2022/06/13 08:38:37;;;;;;;7.47;2.65;;;;;;;17.62;64.95;100972.09;6252396;28;20056;-90
2022/06/13 08:41:47;;;;;;;5.70;2.00;;;;;;;17.98;62.38;100970.13;6232860;28;20420;-90
2022/06/13 08:44:57;;;;;;;6.90;2.10;;;;;;;18.11;61.61;100976.72;6257806;28;20052;-91
2022/06/13 08:48:06;;;;;;;5.13;1.80;;;;;;;18.16;60.14;100975.28;6248957;28;20194;-90
2022/06/13 08:51:12;;;;;;;5.15;1.85;;;;;;;18.65;57.42;100970.09;6247493;28;20044;-91
2022/06/13 08:54:22;;;;;;;5.15;1.75;;;;;;;19.29;55.62;100969.44;6244107;28;20069;-90
2022/06/13 08:57:27;;;;;;;5.68;1.77;;;;;;;19.74;54.57;100979.34;6249683;28;20067;-91
2022/06/13 09:00:31;;;;;;;7.18;2.10;;;;;;;19.40;54.74;100974.31;6260248;28;20502;-91
2022/06/13 09:03:40;;;;;;;5.93;2.08;;;;;;;19.65;53.94;100976.88;6246093;28;20073;-90
2022/06/13 09:07:09;;;;;;;8.20;1.85;;;;;;;19.81;50.94;100969.00;6241177;28;20040;-91
2022/06/13 09:10:31;;;;;;;5.90;1.77;;;;;;;19.70;52.99;100967.56;6245550;28;20068;-90
2022/06/13 09:13:44;;;;;;;5.68;1.73;;;;;;;19.73;51.45;100966.41;6260658;28;20053;-91
2022/06/13 09:17:02;;;;;;;3.80;1.90;;;;;;;19.29;51.56;100965.00;6247247;28;20260;-92
2022/06/13 09:20:10;;;;;;;4.18;1.60;;;;;;;19.30;52.50;100961.41;6250223;28;20054;-90
2022/06/13 09:23:19;;;;;;;3.80;1.50;;;;;;;19.23;52.53;100964.84;6229444;28;20041;-91
2022/06/13 09:26:28;;;;;;;6.55;1.63;;;;;;;19.30;53.22;100966.66;6226326;28;20052;-91
2022/06/13 09:29:45;;;;;;;4.70;1.98;;;;;;;19.50;52.75;100961.00;6226122;28;20117;-91
2022/06/13 09:32:52;;;;;;;4.22;1.77;;;;;;;20.13;52.14;100978.53;6249305;28;20141;-91
2022/06/13 09:36:10;;;;;;;4.03;2.03;;;;;;;20.45;50.81;100960.91;6263893;28;20536;-90
2022/06/13 09:39:15;;;;;;;4.15;1.60;;;;;;;20.20;51.04;100966.34;6253350;28;20056;-90
2022/06/13 09:42:44;;;;;;;3.80;1.75;;;;;;;19.34;52.74;100999.44;6239391;28;20549;-92
2022/06/13 09:46:05;;;;;;;4.80;1.27;;;;;;;17.30;77.71;101054.66;6259002;28;20036;-90
2022/06/13 09:49:54;;;;;;;4.82;1.30;;;;;;;14.80;99.08;101065.75;6250920;28;20088;-94
2022/06/13 09:53:20;;;;;;;4.07;1.20;;;;;;;13.28;100.00;101054.41;6240053;28;20053;-91
2022/06/13 09:56:48;;;;;;;4.85;1.40;;;;;;;12.84;100.00;101051.00;6242532;28;20052;-93
2022/06/13 10:00:21;;;;;;;5.50;2.03;;;;;;;12.68;100.00;101030.63;6252256;28;20044;-92
2022/06/13 10:04:00;;;;;;;4.40;1.45;;;;;;;12.97;100.00;101017.03;6206931;28;20450;-91
2022/06/13 10:07:21;;;;;;;3.13;1.77;;;;;;;13.44;100.00;101014.94;6255014;28;20959;-91
2022/06/13 10:10:45;;;;;;;2.08;1.50;;;;;;;13.34;100.00;101020.94;6250989;28;20136;-92
2022/06/13 10:14:04;;;;;;;3.17;1.50;;;;;;;13.14;100.00;101013.91;6245654;28;20067;-92
2022/06/13 10:17:49;;;;;;;4.35;1.75;;;;;;;13.44;100.00;101007.16;6232060;28;20616;-91
2022/06/13 10:21:06;;;;;;;2.97;1.60;;;;;;;13.83;100.00;100997.75;6224300;28;20061;-92
2022/06/13 10:24:24;;;;;;;4.53;1.95;;;;;;;14.08;100.00;100993.88;6219314;28;20549;-91
2022/06/13 10:27:53;;;;;;;4.35;2.22;;;;;;;14.47;100.00;100980.13;6255077;28;20057;-92
2022/06/13 10:31:08;;;;;;;6.10;2.50;;;;;;;15.05;100.00;100987.97;6244477;28;20052;-93
2022/06/13 10:34:21;;;;;;;6.15;2.55;;;;;;;15.38;100.00;100993.69;6255393;28;20107;-95
2022/06/13 10:38:02;;;;;;;4.00;2.20;;;;;;;15.83;100.00;100991.25;6242822;28;20042;-93
2022/06/13 10:41:05;;;;;;;;;;;;;;;16.28;100.00;100984.44;6243202;28;20045;-93
2022/06/13 10:44:12;;;;;;;5.20;1.90;;;;;;;17.01;100.00;100986.91;6255354;28;19931;-93
2022/06/13 10:47:23;;;;;;;5.75;2.10;;;;;;;17.06;100.00;100996.94;6265334;28;20051;-93
2022/06/13 10:50:32;;;;;;;6.20;2.42;;;;;;;16.45;100.00;101008.94;6234248;28;20030;-94
2022/06/13 10:54:03;;;;;;;16.37;3.47;;;;;;;15.60;100.00;101040.34;6236782;28;20037;-94
2022/06/13 10:57:09;;;;;;;15.32;3.97;;;;;;;14.62;100.00;101049.16;6242115;28;20312;-88
2022/06/13 11:00:14;;;;;;;11.93;3.83;;;;;;;14.20;100.00;101062.31;6223394;28;20170;-89
2022/06/13 11:03:17;;;;;;;9.85;3.75;;;;;;;13.81;100.00;101038.69;6227424;28;20095;-91
2022/06/13 11:06:23;;;;;;;10.20;3.53;;;;;;;14.02;100.00;101043.88;6238195;28;20045;-91
2022/06/13 11:09:41;;;;;;;5.53;3.20;;;;;;;14.27;100.00;101039.19;6229015;28;20494;-90
2022/06/13 11:12:49;;;;;;;8.20;3.53;;;;;;;14.58;100.00;101032.13;6232126;28;20303;-91
2022/06/13 11:23:01;;;;;;;7.15;2.90;;;;;;;14.70;100.00;101056.28;6227090;28;20132;-88
2022/06/13 11:27:39;;;;;;;3.28;2.10;;;;;;;14.57;100.00;101062.56;6225401;28;20519;-91
2022/06/13 11:29:26;;;;;;;2.88;1.60;;;;;;;14.35;100.00;101081.00;6228657;28;20356;-91
2022/06/13 11:32:28;;;;;;;4.07;1.77;;;;;;;13.91;100.00;101065.63;6237032;28;20396;-87
2022/06/13 11:35:41;;;;;;;4.47;1.80;;;;;;;13.50;100.00;101076.88;6245012;28;20045;-89
2022/06/13 11:39:03;;;;;;;2.15;1.08;;;;;;;13.38;100.00;101076.09;6243920;28;20130;-88
2022/06/13 11:42:20;;;;;;;2.55;1.17;;;;;;;13.24;100.00;101069.41;6228176;28;20049;-90
2022/06/13 11:45:30;;;;;;;2.03;1.10;;;;;;;13.45;100.00;101058.22;6262703;28;20045;-89
2022/06/13 11:48:34;;;;;;;2.95;0.95;;;;;;;13.86;100.00;101075.56;6257930;28;20037;-90
2022/06/13 11:51:42;;;;;;;1.27;1.15;;;;;;;14.20;100.00;101062.31;6222873;28;20622;-89
2022/06/13 11:54:55;;;;;;;1.88;1.08;;;;;;;14.63;100.00;101064.66;6235986;28;20048;-89
2022/06/13 11:58:02;;;;;;;3.05;1.15;;;;;;;15.06;100.00;101060.03;6237302;28;20046;-91
2022/06/13 12:01:31;;;;;;;1.48;0.80;;;;;;;15.34;100.00;101057.56;6253236;28;20422;-91
2022/06/13 12:04:37;;;;;;;2.13;0.93;;;;;;;16.00;100.00;101065.41;6259626;28;20045;-90
2022/06/13 12:07:58;;;;;;;1.38;0.68;;;;;;;16.49;100.00;101065.97;6244050;28;20442;-91
2022/06/13 12:11:08;;;;;;;2.55;0.88;;;;;;;16.82;100.00;101066.38;6250125;28;20048;-91
2022/06/13 12:14:10;;;;;;;1.07;0.90;;;;;;;16.76;100.00;101069.53;6260499;28;20055;-91
2022/06/13 12:17:33;;;;;;;1.77;0.93;;;;;;;16.60;100.00;101072.00;6257563;28;20127;-92
2022/06/13 12:20:46;;;;;;;1.90;1.17;;;;;;;16.83;100.00;101060.16;6248913;28;20044;-91
2022/06/13 12:24:01;;;;;;;1.42;0.70;;;;;;;17.00;98.19;101068.97;6258249;28;20041;-91
2022/06/13 12:27:24;;;;;;;1.58;0.70;;;;;;;17.15;100.00;101061.41;6251641;28;20543;-92
2022/06/13 12:30:47;;;;;;;2.13;0.90;;;;;;;17.42;100.00;101060.50;6247416;28;20390;-91
2022/06/13 12:34:02;;;;;;;0.95;0.95;;;;;;;17.55;100.00;101058.28;6242649;28;20064;-92
2022/06/13 12:37:42;;;;;;;2.17;0.85;;;;;;;17.73;100.00;101066.06;6240608;28;20066;-93
2022/06/13 12:41:24;;;;;;;1.48;0.90;;;;;;;17.94;95.72;101062.31;6235769;28;20139;-93
2022/06/13 12:44:47;;;;;;;2.00;0.90;;;;;;;18.02;98.18;101054.50;6266081;28;20083;-95
2022/06/13 12:48:06;;;;;;;4.03;1.10;;;;;;;18.36;99.98;101046.59;6266101;28;20124;-94
2022/06/13 12:51:36;;;;;;;2.88;1.08;;;;;;;18.73;93.25;101048.81;6233729;28;20744;-96
2022/06/13 12:55:30;;;;;;;2.83;1.77;;;;;;;19.31;84.76;101054.91;6243421;28;20054;-92
2022/06/13 12:58:49;;;;;;;4.10;0.80;;;;;;;19.41;88.28;101064.44;6150190;28;20062;-93
2022/06/13 13:02:10;;;;;;;2.88;1.02;;;;;;;19.44;81.93;101067.53;6171378;28;20054;-93
2022/06/13 13:05:34;;;;;;;1.67;0.90;;;;;;;19.21;83.91;101064.78;6178497;28;20047;-89
2022/06/13 13:08:44;;;;;;;1.23;0.90;;;;;;;19.07;84.44;101055.75;6177004;28;20523;-95
2022/06/13 13:11:55;;;;;;;2.05;1.02;;;;;;;18.69;80.14;101063.22;6178472;28;20053;-91
2022/06/13 13:15:21;;;;;;;2.05;0.82;;;;;;;18.66;77.54;101068.78;6177446;28;20047;-91
2022/06/13 13:18:54;;;;;;;1.55;0.95;;;;;;;18.66;76.51;101063.53;6170347;28;20055;-89
2022/06/13 13:22:08;;;;;;;1.60;0.93;;;;;;;18.80;74.97;101064.72;6195206;28;20049;-90
2022/06/13 13:25:34;;;;;;;0.73;0.50;;;;;;;18.87;74.92;101063.09;6181892;28;20095;-90
2022/06/13 13:28:55;;;;;;;1.05;0.77;;;;;;;18.81;75.43;101053.28;6177712;28;20057;-90
2022/06/13 13:32:11;;;;;;;;;;;;;;;18.68;76.15;101064.22;6188719;28;20661;-90
2022/06/13 13:35:47;;;;;;;2.38;0.80;;;;;;;18.85;77.06;101061.63;6200533;28;19932;-90
2022/06/13 13:38:56;;;;;;;1.75;0.60;;;;;;;19.73;74.17;101068.84;6222669;28;20090;-92
2022/06/13 13:42:05;;;;;;;1.30;0.60;;;;;;;20.29;70.25;101066.19;6246380;28;20169;-92
2022/06/13 13:45:37;;;;;;;0.73;0.68;;;;;;;20.77;70.77;101069.53;6264184;28;20045;-91
2022/06/13 13:48:54;;;;;;;2.08;0.80;;;;;;;21.21;64.94;101072.34;6263825;28;20127;-90
2022/06/13 13:52:17;;;;;;;3.88;0.80;;;;;;;21.28;66.74;101068.00;6244885;28;20052;-90
2022/06/13 13:55:37;;;;;;;0.85;0.63;;;;;;;21.11;60.62;101068.31;6218275;28;20052;-91
2022/06/13 13:58:42;;;;;;;1.50;0.70;;;;;;;21.17;64.70;101070.25;6216073;28;20045;-91
2022/06/13 14:01:58;;;;;;;1.67;0.77;;;;;;;21.13;59.31;101075.03;6229089;28;20053;-90
2022/06/13 14:05:30;;;;;;;3.22;0.80;;;;;;;20.70;60.91;101082.59;6242889;28;20073;-91
2022/06/13 14:08:36;;;;;;;1.08;0.65;;;;;;;20.32;61.17;101100.00;6224608;28;20041;-92
2022/06/13 14:12:11;;;;;;;1.98;0.77;;;;;;;19.98;61.62;101099.31;6223091;28;20057;-91
2022/06/13 14:15:29;;;;;;;1.77;0.82;;;;;;;19.78;63.02;101090.19;6219442;28;20659;-91
2022/06/13 14:19:12;;;;;;;1.67;0.77;;;;;;;20.28;62.84;101093.47;6233767;28;20052;-91
2022/06/13 14:22:17;;;;;;;1.08;0.70;;;;;;;20.83;59.57;101084.66;6234800;28;20049;-92
2022/06/13 14:25:38;;;;;;;3.90;0.90;;;;;;;20.94;56.85;101080.78;6231979;28;20041;-90
2022/06/13 14:28:54;;;;;;;4.13;0.90;;;;;;;21.15;55.43;101094.13;6250574;28;20605;-90
2022/06/13 14:32:06;;;;;;;2.38;0.80;;;;;;;21.47;55.53;101084.34;6243017;28;20053;-92
2022/06/13 14:35:51;;;;;;;0.98;0.80;;;;;;;20.80;57.60;101100.78;6227971;28;20056;-90
2022/06/13 14:39:02;;;;;;;3.35;0.75;;;;;;;19.87;60.17;101099.66;6230444;28;20493;-91
2022/06/13 14:42:25;;;;;;;1.77;0.70;;;;;;;19.55;61.21;101096.09;6236704;28;20042;-90
2022/06/13 14:45:39;;;;;;;2.80;0.80;;;;;;;19.68;64.70;101084.28;6245704;28;20124;-92
2022/06/13 14:48:58;;;;;;;2.05;1.00;;;;;;;19.69;61.88;101101.69;6246756;28;20494;-91
2022/06/13 14:52:22;;;;;;;2.25;0.90;;;;;;;19.46;63.65;101091.84;6248741;28;20413;-92
2022/06/13 14:55:24;;;;;;;1.00;0.63;;;;;;;19.50;61.57;101089.69;6236062;28;20525;-93
2022/06/13 14:58:47;;;;;;;2.97;1.20;;;;;;;19.16;61.55;101082.81;6245785;28;20044;-92
2022/06/13 15:02:15;;;;;;;1.88;0.90;;;;;;;19.51;66.33;101086.09;6246893;28;20200;-92
2022/06/13 15:05:17;;;;;;;2.20;0.90;;;;;;;20.26;58.95;101093.63;6244921;28;20069;-91
2022/06/13 15:08:49;;;;;;;2.53;0.77;;;;;;;20.18;55.51;101097.13;6242896;28;20452;-91